Time;durP1;ratioP1;P1;durP2;ratioP2;P2;SDS_P1;SDS_P2;PMS_P1;PMS_P2;Temp;Humidity;BMP_temperature;BMP_pressure;BME280_temperature;BME280_humidity;BME280_pressure;Samples;Min_cycle;Max_cycle;Signal;HPM_P1;HPM_P2
2022/05/06 00:00:47;;;;;;;15.57;7.03;;;;;;;14.13;60.84;101989.25;2105306;28;20213;-66
2022/05/06 00:01:49;;;;;;;8.67;6.47;;;;;;;14.12;60.53;101995.25;2105982;28;20201;-67
2022/05/06 00:02:49;;;;;;;16.97;7.40;;;;;;;14.12;60.29;101981.31;2105603;28;20264;-67
2022/05/06 00:03:50;;;;;;;21.10;7.53;;;;;;;14.00;59.76;101982.72;2105910;28;20416;-67
2022/05/06 00:04:51;;;;;;;12.47;7.67;;;;;;;14.07;59.39;101988.16;2104798;28;20184;-66
2022/05/06 00:05:52;;;;;;;13.07;7.50;;;;;;;13.48;59.32;101905.53;2105061;28;20183;-67
2022/05/06 00:06:53;;;;;;;23.00;8.73;;;;;;;13.92;59.54;101981.25;2105471;28;20417;-66
2022/05/06 00:07:53;;;;;;;26.20;9.03;;;;;;;13.95;59.56;101993.53;2105780;28;20179;-66
2022/05/06 00:08:54;;;;;;;23.87;8.93;;;;;;;13.89;59.32;101992.47;2105288;28;20299;-67
2022/05/06 00:09:54;;;;;;;26.80;8.40;;;;;;;13.87;59.40;101990.09;2105451;28;20265;-67
2022/05/06 00:10:55;;;;;;;21.97;8.30;;;;;;;13.84;59.55;101990.91;2105183;28;20179;-67
2022/05/06 00:11:55;;;;;;;16.57;8.07;;;;;;;13.81;59.42;101986.19;2105941;28;20183;-67
2022/05/06 00:12:56;;;;;;;12.50;7.50;;;;;;;13.72;59.63;101977.59;2105642;28;20651;-66
2022/05/06 00:13:56;;;;;;;11.73;6.90;;;;;;;13.77;59.37;101993.81;2105948;28;20667;-66
2022/05/06 00:14:57;;;;;;;11.63;7.23;;;;;;;13.69;59.53;101983.97;2105464;28;20261;-67
2022/05/06 00:15:57;;;;;;;8.63;6.90;;;;;;;13.66;59.46;101976.47;2105802;28;20170;-66
2022/05/06 00:16:58;;;;;;;8.27;6.70;;;;;;;12.54;59.14;101810.25;2105307;28;20172;-67
2022/05/06 00:17:58;;;;;;;13.43;6.73;;;;;;;13.65;59.31;101997.19;2105034;28;20198;-66
2022/05/06 00:18:59;;;;;;;9.10;6.80;;;;;;;13.63;59.37;101999.59;2106123;28;20175;-67
2022/05/06 00:19:59;;;;;;;10.00;6.47;;;;;;;13.59;59.37;101998.09;2105770;28;20193;-67
2022/05/06 00:21:00;;;;;;;9.33;6.83;;;;;;;13.54;59.35;101999.34;2105169;28;20179;-67
2022/05/06 00:22:01;;;;;;;8.87;6.43;;;;;;;13.50;59.39;101998.59;2105680;28;20171;-67
2022/05/06 00:23:01;;;;;;;9.67;6.27;;;;;;;13.48;59.54;102000.25;2105570;28;20225;-67
2022/05/06 00:24:03;;;;;;;9.70;6.83;;;;;;;13.44;59.40;102000.28;2105391;28;21004;-66
2022/05/06 00:25:04;;;;;;;10.00;7.03;;;;;;;12.67;59.78;101891.94;2104635;28;20219;-66
2022/05/06 00:26:05;;;;;;;9.83;7.10;;;;;;;12.99;59.87;101939.63;2104927;28;20425;-67
2022/05/06 00:27:05;;;;;;;16.40;7.10;;;;;;;12.39;59.73;101861.69;2106213;28;20179;-67
2022/05/06 00:28:06;;;;;;;17.03;7.10;;;;;;;13.32;59.71;102011.97;2105639;28;20178;-67
2022/05/06 00:29:06;;;;;;;11.33;6.90;;;;;;;13.31;59.82;102015.97;2106025;28;20256;-67
2022/05/06 00:30:08;;;;;;;9.57;6.90;;;;;;;13.16;59.70;102002.66;2105725;28;20229;-66
2022/05/06 00:31:09;;;;;;;8.77;7.23;;;;;;;13.26;59.85;102021.19;2105153;28;20176;-66
2022/05/06 00:32:09;;;;;;;9.10;6.40;;;;;;;13.26;59.98;102012.84;2105484;28;20496;-67
2022/05/06 00:33:10;;;;;;;11.93;6.80;;;;;;;13.12;59.95;101997.13;2105865;28;20171;-67
2022/05/06 00:34:11;;;;;;;10.13;6.50;;;;;;;13.21;59.89;102016.13;2105685;28;20436;-66
2022/05/06 00:35:11;;;;;;;9.40;5.83;;;;;;;12.85;59.89;101962.84;2104504;28;20171;-66
2022/05/06 00:36:12;;;;;;;9.67;6.13;;;;;;;13.18;59.90;102019.72;2105751;28;20250;-66
2022/05/06 00:37:12;;;;;;;9.10;6.10;;;;;;;13.17;59.98;102018.91;2105783;28;20560;-67
2022/05/06 00:38:13;;;;;;;11.10;6.17;;;;;;;13.15;59.71;102026.09;2104782;28;20175;-66
2022/05/06 00:39:13;;;;;;;11.77;7.10;;;;;;;13.07;59.74;102014.28;2106006;28;20258;-67
2022/05/06 00:40:14;;;;;;;15.57;6.90;;;;;;;12.11;59.87;101875.91;2105123;28;20182;-66
2022/05/06 00:41:14;;;;;;;14.17;7.70;;;;;;;13.08;60.06;102026.22;2105635;28;20177;-67
2022/05/06 00:42:16;;;;;;;10.97;7.60;;;;;;;13.06;60.20;102017.50;2105483;28;20179;-67
2022/05/06 00:43:17;;;;;;;12.50;7.27;;;;;;;13.04;60.40;102022.66;2105734;28;20260;-66
2022/05/06 00:44:18;;;;;;;9.83;7.10;;;;;;;12.46;60.64;101936.69;2105322;28;20547;-67
2022/05/06 00:45:19;;;;;;;11.73;7.87;;;;;;;12.59;60.68;101959.97;2105141;28;20436;-67
2022/05/06 00:46:20;;;;;;;11.87;7.57;;;;;;;12.92;60.73;102012.06;2105568;28;20213;-66
2022/05/06 00:47:22;;;;;;;13.23;7.40;;;;;;;12.79;60.89;101997.88;2105916;28;20174;-66
2022/05/06 00:48:31;;;;;;;9.97;7.10;;;;;;;12.30;60.70;101925.34;2105324;28;20451;-67
2022/05/06 00:49:33;;;;;;;10.23;7.27;;;;;;;12.72;60.74;101984.06;2105882;28;20412;-67
2022/05/06 00:50:34;;;;;;;9.80;7.47;;;;;;;12.87;60.99;102021.63;2104866;28;20462;-67
2022/05/06 00:51:35;;;;;;;9.17;6.57;;;;;;;12.79;60.80;102024.91;2105826;28;20511;-67
2022/05/06 00:52:36;;;;;;;7.23;6.07;;;;;;;12.73;60.65;102019.03;2105461;28;20182;-67
2022/05/06 00:53:36;;;;;;;7.50;6.70;;;;;;;12.61;60.63;102005.63;2105580;28;20327;-67
2022/05/06 00:54:38;;;;;;;7.73;6.90;;;;;;;12.52;60.63;102008.13;2105173;28;20409;-67
2022/05/06 00:55:39;;;;;;;7.60;6.80;;;;;;;12.43;60.73;102002.25;2105452;28;20174;-67
2022/05/06 00:56:39;;;;;;;8.60;6.97;;;;;;;12.50;60.51;102018.06;2105670;28;20415;-67
2022/05/06 00:57:41;;;;;;;8.60;6.97;;;;;;;12.46;61.02;102017.31;2105784;28;20238;-67
2022/05/06 00:58:45;;;;;;;8.50;7.03;;;;;;;12.46;61.20;102020.84;2105520;28;20670;-67
2022/05/06 01:01:05;;;;;;;17.37;8.30;;;;;;;12.28;61.66;102025.81;2105104;28;20400;-67
2022/05/06 01:02:06;;;;;;;13.70;7.77;;;;;;;11.04;61.85;101835.53;2105306;28;20420;-67
2022/05/06 01:03:06;;;;;;;17.03;8.23;;;;;;;12.31;61.96;102022.22;2105845;28;20448;-67
2022/05/06 01:04:08;;;;;;;13.23;7.70;;;;;;;12.29;62.06;102021.81;2105142;28;20273;-66
2022/05/06 01:05:09;;;;;;;11.40;7.13;;;;;;;11.76;61.96;101948.44;2104981;28;20223;-66
2022/05/06 01:06:16;;;;;;;12.33;8.20;;;;;;;12.21;62.41;102025.06;2105319;28;20478;-66
2022/05/06 01:07:19;;;;;;;8.83;7.50;;;;;;;12.21;62.50;102022.28;2105786;28;20451;-66
2022/05/06 01:08:20;;;;;;;12.03;8.23;;;;;;;12.13;62.60;102017.97;2104462;28;20420;-66
2022/05/06 01:09:20;;;;;;;10.30;7.17;;;;;;;12.17;63.07;102015.97;2105160;28;20492;-66
2022/05/06 01:10:21;;;;;;;15.07;7.83;;;;;;;12.19;62.62;102027.50;2104762;28;20179;-67
2022/05/06 01:11:22;;;;;;;15.33;7.43;;;;;;;12.20;62.70;102015.94;2105795;28;20175;-66
2022/05/06 01:12:22;;;;;;;13.57;8.13;;;;;;;11.71;62.87;101944.13;2104504;28;20417;-67
2022/05/06 01:13:23;;;;;;;16.10;8.00;;;;;;;12.17;62.82;102007.63;2105005;28;20178;-67
2022/05/06 01:14:32;;;;;;;15.53;8.13;;;;;;;12.26;62.67;102019.06;2105210;28;20260;-66
2022/05/06 01:15:33;;;;;;;18.90;8.67;;;;;;;12.26;62.82;102019.88;2105195;28;20177;-67
2022/05/06 01:16:34;;;;;;;15.10;8.47;;;;;;;12.23;62.74;102023.47;2105474;28;20824;-66
2022/05/06 01:17:35;;;;;;;14.07;8.20;;;;;;;12.27;62.96;102026.22;2105659;28;20182;-66
2022/05/06 01:18:35;;;;;;;12.53;7.47;;;;;;;12.29;63.10;102026.59;2105291;28;20423;-67
2022/05/06 01:19:36;;;;;;;12.57;7.60;;;;;;;11.87;62.99;101951.91;2104802;28;20274;-67
2022/05/06 01:20:38;;;;;;;10.43;7.47;;;;;;;12.04;62.96;101982.34;2104002;28;20207;-67
2022/05/06 01:21:43;;;;;;;11.73;7.93;;;;;;;12.34;63.01;102024.16;2105556;28;20181;-67
2022/05/06 01:22:49;;;;;;;13.23;8.47;;;;;;;12.35;63.08;102022.19;2105177;28;20424;-66
2022/05/06 01:23:49;;;;;;;8.97;7.60;;;;;;;12.16;63.27;102004.09;2105372;28;20404;-66
2022/05/06 01:24:50;;;;;;;10.43;7.60;;;;;;;11.88;63.08;101950.75;2104805;28;20434;-66
2022/05/06 01:25:51;;;;;;;11.13;7.83;;;;;;;11.31;63.10;101864.25;2105153;28;20247;-66
2022/05/06 01:27:00;;;;;;;10.37;7.80;;;;;;;12.35;63.26;102020.19;2105356;28;20180;-67
2022/05/06 01:28:05;;;;;;;11.03;7.87;;;;;;;12.15;63.59;102008.03;2105421;28;20410;-66
2022/05/06 01:29:06;;;;;;;10.37;8.17;;;;;;;12.26;63.83;102024.63;2105392;28;20435;-66
2022/05/06 01:30:10;;;;;;;10.10;7.97;;;;;;;12.30;63.79;102025.41;2105422;28;20408;-67
2022/05/06 01:31:21;;;;;;;8.37;7.23;;;;;;;11.67;63.32;101923.09;2104953;28;20180;-66
2022/05/06 01:32:22;;;;;;;9.60;8.00;;;;;;;12.34;63.41;102021.38;2105228;28;20403;-66
2022/05/06 01:33:25;;;;;;;8.60;7.40;;;;;;;11.14;63.26;101845.75;2105051;28;20426;-66
2022/05/06 01:34:28;;;;;;;12.13;7.30;;;;;;;12.36;63.34;102029.31;2104502;28;20499;-67
2022/05/06 01:35:30;;;;;;;7.97;6.87;;;;;;;12.37;63.40;102042.81;2104898;28;20477;-67
2022/05/06 01:36:32;;;;;;;8.57;7.30;;;;;;;12.32;63.22;102021.00;2105370;28;20422;-67
2022/05/06 01:37:36;;;;;;;7.93;6.27;;;;;;;11.76;62.72;101926.22;2105792;28;20503;-66
2022/05/06 01:38:44;;;;;;;9.30;7.07;;;;;;;11.94;62.54;101943.53;2105393;28;20421;-66
2022/05/06 01:39:51;;;;;;;9.63;7.10;;;;;;;12.19;62.54;101992.13;2105477;28;20449;-67
2022/05/06 01:40:59;;;;;;;9.27;7.33;;;;;;;11.35;62.45;101862.25;2103932;28;20429;-67
2022/05/06 01:42:06;;;;;;;8.77;6.87;;;;;;;11.92;62.27;101951.47;2104596;28;20469;-66
2022/05/06 01:43:11;;;;;;;9.83;6.90;;;;;;;12.32;62.45;102018.22;2105664;28;20482;-67
2022/05/06 01:44:14;;;;;;;8.00;6.60;;;;;;;11.95;62.62;101964.56;2104423;28;20452;-66
2022/05/06 01:45:18;;;;;;;10.20;7.07;;;;;;;12.40;62.64;102030.09;2104294;28;20403;-67
2022/05/06 01:46:21;;;;;;;9.03;7.43;;;;;;;12.42;62.63;102024.88;2106012;28;20424;-66
2022/05/06 01:47:33;;;;;;;8.23;7.40;;;;;;;12.27;62.51;102015.09;2107378;28;20423;-66
2022/05/06 01:48:35;;;;;;;9.43;6.80;;;;;;;12.35;62.71;102030.53;2107076;28;20434;-66
2022/05/06 01:49:39;;;;;;;11.53;7.43;;;;;;;12.15;62.86;102008.03;2106224;28;20419;-67
2022/05/06 01:50:41;;;;;;;10.33;7.63;;;;;;;12.09;63.12;101992.25;2105727;28;20512;-66
2022/05/06 01:51:43;;;;;;;9.20;7.70;;;;;;;12.27;63.66;102023.44;2107134;28;21018;-66
2022/05/06 01:52:46;;;;;;;9.20;7.30;;;;;;;12.28;63.56;102027.78;2106974;28;20431;-67
2022/05/06 01:53:47;;;;;;;9.90;6.97;;;;;;;12.28;64.19;102022.22;2107107;28;20485;-67
2022/05/06 01:54:47;;;;;;;10.47;7.70;;;;;;;12.30;63.94;102017.84;2106362;28;20504;-66
2022/05/06 01:55:48;;;;;;;8.60;7.20;;;;;;;11.51;64.06;101895.84;2106656;28;20262;-66
2022/05/06 01:56:49;;;;;;;7.97;7.00;;;;;;;12.27;64.10;102013.13;2107085;28;20692;-66
2022/05/06 01:57:49;;;;;;;11.03;7.53;;;;;;;12.21;64.28;102006.44;2107241;28;20683;-66
2022/05/06 01:58:50;;;;;;;7.83;6.80;;;;;;;12.29;64.16;102019.03;2107162;28;20182;-66
2022/05/06 01:59:50;;;;;;;7.87;7.07;;;;;;;12.32;64.04;102020.22;2106792;28;20261;-66
2022/05/06 02:00:51;;;;;;;10.40;7.60;;;;;;;12.35;64.16;102016.63;2106375;28;20181;-67
2022/05/06 02:01:51;;;;;;;9.30;7.13;;;;;;;12.39;64.27;102025.69;2107149;28;20178;-66
2022/05/06 02:02:55;;;;;;;8.60;7.63;;;;;;;11.75;64.31;101933.78;2106793;28;20560;-66
2022/05/06 02:05:17;;;;;;;12.73;7.37;;;;;;;12.37;64.47;102012.22;2106360;28;20393;-67
2022/05/06 02:06:18;;;;;;;11.23;7.33;;;;;;;12.35;64.52;102022.94;2106718;28;20445;-66
2022/05/06 02:07:18;;;;;;;10.03;7.63;;;;;;;12.34;64.50;102023.38;2107289;28;20424;-66
2022/05/06 02:08:19;;;;;;;9.80;7.20;;;;;;;12.38;64.38;102026.91;2106236;28;20667;-67
2022/05/06 02:09:19;;;;;;;12.03;7.00;;;;;;;12.16;64.58;101983.81;2106308;28;20177;-66
2022/05/06 02:10:22;;;;;;;10.80;7.13;;;;;;;12.44;64.70;102036.38;2105300;28;20193;-66
2022/05/06 02:11:23;;;;;;;13.43;7.67;;;;;;;12.46;64.82;102031.97;2106601;28;20435;-66
2022/05/06 02:12:23;;;;;;;13.30;7.60;;;;;;;12.42;64.75;102022.91;2106685;28;20424;-66
2022/05/06 02:13:24;;;;;;;14.33;7.13;;;;;;;12.50;64.73;102027.19;2107081;28;20201;-66
2022/05/06 02:14:24;;;;;;;15.07;7.80;;;;;;;12.50;64.72;102018.06;2106810;28;20174;-67
2022/05/06 02:15:25;;;;;;;15.60;8.47;;;;;;;11.71;64.49;101896.09;2106199;28;20595;-66
2022/05/06 02:16:26;;;;;;;17.83;8.23;;;;;;;12.52;64.61;102019.25;2106786;28;20175;-67
2022/05/06 02:17:26;;;;;;;14.10;7.67;;;;;;;12.48;64.78;102023.22;2107228;28;20188;-66
2022/05/06 02:18:27;;;;;;;10.17;7.23;;;;;;;12.29;64.77;101985.69;2106766;28;20173;-67
2022/05/06 02:19:27;;;;;;;13.37;7.83;;;;;;;12.56;64.76;102027.53;2106884;28;20177;-66
2022/05/06 02:20:28;;;;;;;37.17;10.90;;;;;;;12.57;64.57;102035.47;2105803;28;20581;-66
2022/05/06 02:21:28;;;;;;;30.77;9.03;;;;;;;11.73;64.79;101919.50;2107046;28;20182;-67
2022/05/06 02:22:29;;;;;;;32.83;9.30;;;;;;;12.47;64.77;102016.09;2106323;28;20201;-66
2022/05/06 02:23:30;;;;;;;30.00;8.77;;;;;;;12.53;65.01;102022.78;2106958;28;20164;-67
2022/05/06 02:24:30;;;;;;;18.13;7.87;;;;;;;12.26;64.85;101974.59;2106635;28;20464;-67
2022/05/06 02:25:31;;;;;;;15.03;7.60;;;;;;;12.52;64.83;102022.03;2106206;28;20687;-66
2022/05/06 02:26:32;;;;;;;15.53;7.60;;;;;;;12.40;64.85;102008.59;2105660;28;20183;-66
2022/05/06 02:27:32;;;;;;;16.63;6.97;;;;;;;12.50;65.03;102018.84;2106463;28;20225;-66
2022/05/06 02:28:32;;;;;;;12.70;7.13;;;;;;;12.47;64.57;102011.34;2106067;28;20190;-67
2022/05/06 02:29:33;;;;;;;12.83;7.07;;;;;;;11.65;64.74;101876.34;2106387;28;20185;-66
2022/05/06 02:33:15;;;;;;;18.43;7.53;;;;;;;12.48;64.32;102031.56;2107016;28;20400;-66
2022/05/06 02:34:16;;;;;;;11.80;6.80;;;;;;;11.75;64.27;101908.78;2106670;28;20863;-66
2022/05/06 02:35:17;;;;;;;9.53;6.70;;;;;;;11.94;64.24;101929.66;2106022;28;20786;-67
2022/05/06 02:36:17;;;;;;;7.37;6.17;;;;;;;12.39;64.13;102000.69;2106622;28;20427;-67
2022/05/06 02:37:18;;;;;;;10.60;6.47;;;;;;;12.13;64.28;101959.63;2107015;28;20181;-66
2022/05/06 02:38:20;;;;;;;10.57;6.70;;;;;;;12.50;64.34;102015.28;2106586;28;20177;-66
2022/05/06 02:39:21;;;;;;;10.83;6.80;;;;;;;12.24;64.18;101982.56;2106856;28;20700;-66
2022/05/06 02:40:21;;;;;;;8.40;7.07;;;;;;;12.34;64.44;102006.72;2105592;28;20826;-66
2022/05/06 02:41:22;;;;;;;9.97;6.50;;;;;;;12.31;64.48;102008.31;2106222;28;20566;-66
2022/05/06 02:42:24;;;;;;;7.40;6.40;;;;;;;11.94;64.67;101947.09;2105747;28;20300;-66
2022/05/06 02:43:24;;;;;;;10.13;6.33;;;;;;;11.44;64.58;101861.78;2106858;28;20175;-66
2022/05/06 02:44:25;;;;;;;12.40;6.53;;;;;;;12.21;64.87;101989.75;2106484;28;20462;-67
2022/05/06 02:45:26;;;;;;;9.10;6.40;;;;;;;12.43;64.80;102016.13;2105926;28;20177;-66
2022/05/06 02:46:26;;;;;;;9.13;6.57;;;;;;;11.91;64.81;101931.25;2106464;28;20655;-66
2022/05/06 02:47:27;;;;;;;8.63;6.40;;;;;;;12.16;64.88;101967.16;2106896;28;20266;-66
2022/05/06 02:48:27;;;;;;;10.17;6.17;;;;;;;12.47;65.02;102021.66;2106468;28;20565;-66
2022/05/06 02:49:28;;;;;;;7.77;6.90;;;;;;;12.48;64.93;102012.13;2106745;28;20745;-66
2022/05/06 02:50:29;;;;;;;8.60;6.30;;;;;;;12.03;64.77;101938.28;2105484;28;20220;-66
2022/05/06 02:51:30;;;;;;;10.17;6.33;;;;;;;11.81;64.43;101906.34;2106935;28;20262;-66
2022/05/06 02:52:30;;;;;;;9.00;6.67;;;;;;;12.41;64.25;101987.16;2106319;28;20417;-67
2022/05/06 02:53:31;;;;;;;9.30;6.03;;;;;;;12.10;64.20;101947.34;2106822;28;20178;-66
2022/05/06 02:54:31;;;;;;;10.43;6.57;;;;;;;12.62;63.91;102023.91;2106513;28;20171;-66
2022/05/06 02:55:32;;;;;;;8.97;6.40;;;;;;;12.62;63.75;102029.47;2106085;28;20651;-66
2022/05/06 02:56:33;;;;;;;10.93;6.40;;;;;;;12.61;63.73;102029.88;2106440;28;20250;-66
2022/05/06 02:57:34;;;;;;;10.93;6.63;;;;;;;12.45;63.68;102010.94;2106240;28;20165;-66
2022/05/06 02:58:35;;;;;;;9.07;5.93;;;;;;;12.58;63.75;102033.47;2106020;28;20417;-67
2022/05/06 02:59:35;;;;;;;7.90;5.97;;;;;;;12.57;63.74;102031.91;2106671;28;20176;-66
2022/05/06 03:00:36;;;;;;;7.77;5.97;;;;;;;12.56;63.52;102028.31;2105361;28;20419;-66
2022/05/06 03:01:37;;;;;;;9.20;6.10;;;;;;;12.57;63.82;102031.91;2106693;28;20180;-67
2022/05/06 03:02:38;;;;;;;8.47;6.50;;;;;;;12.56;63.52;102039.44;2106286;28;20421;-66
2022/05/06 03:03:38;;;;;;;9.27;6.10;;;;;;;12.52;63.59;102026.78;2106504;28;20181;-66
2022/05/06 03:04:40;;;;;;;8.63;6.20;;;;;;;12.59;63.52;102038.63;2105931;28;20453;-66
2022/05/06 03:05:41;;;;;;;9.57;6.40;;;;;;;12.53;63.05;102031.94;2106176;28;20222;-66
2022/05/06 03:06:44;;;;;;;8.17;5.80;;;;;;;12.50;63.25;102026.41;2106411;28;20496;-66
2022/05/06 03:07:45;;;;;;;7.53;5.73;;;;;;;12.61;63.08;102043.78;2106578;28;20179;-66
2022/05/06 03:08:45;;;;;;;6.90;5.80;;;;;;;12.62;63.00;102046.16;2106499;28;20413;-66
2022/05/06 03:09:46;;;;;;;7.37;5.37;;;;;;;12.62;62.66;102051.72;2106560;28;20258;-66
2022/05/06 03:10:46;;;;;;;7.83;5.47;;;;;;;12.55;62.57;102034.31;2105483;28;20202;-66
2022/05/06 03:11:47;;;;;;;7.50;5.57;;;;;;;12.58;62.23;102047.38;2106532;28;20659;-67
2022/05/06 03:12:48;;;;;;;9.23;6.83;;;;;;;12.51;62.13;102037.09;2106253;28;20645;-66
2022/05/06 03:13:48;;;;;;;8.53;6.03;;;;;;;12.56;61.96;102050.56;2106431;28;20178;-66
2022/05/06 03:14:49;;;;;;;8.57;6.20;;;;;;;12.54;61.99;102047.41;2105758;28;20164;-67
2022/05/06 03:15:49;;;;;;;10.60;5.83;;;;;;;12.54;61.79;102047.41;2106036;28;20691;-66
2022/05/06 03:16:50;;;;;;;9.70;6.60;;;;;;;12.06;61.86;101984.72;2105775;28;20179;-66
2022/05/06 03:17:52;;;;;;;10.50;7.03;;;;;;;12.50;61.86;102049.44;2105764;28;20753;-66
2022/05/06 03:18:52;;;;;;;11.80;7.93;;;;;;;12.49;62.11;102056.19;2106476;28;20182;-66
2022/05/06 03:19:53;;;;;;;12.40;7.90;;;;;;;11.25;62.07;101857.56;2106421;28;20415;-66
2022/05/06 03:20:53;;;;;;;12.70;7.67;;;;;;;12.45;62.20;102049.88;2105239;28;20209;-66
2022/05/06 03:21:54;;;;;;;19.40;9.10;;;;;;;12.45;62.37;102054.66;2106356;28;20203;-66
2022/05/06 03:22:55;;;;;;;13.27;9.00;;;;;;;12.42;62.46;102053.50;2106085;28;20226;-66
2022/05/06 03:23:58;;;;;;;15.30;9.10;;;;;;;12.31;62.51;102036.13;2106136;28;20252;-66
2022/05/06 03:24:58;;;;;;;15.27;9.67;;;;;;;12.30;62.53;102036.53;2105722;28;20171;-66
2022/05/06 03:25:59;;;;;;;17.67;9.37;;;;;;;12.40;62.63;102057.88;2106053;28;20419;-66
2022/05/06 03:26:59;;;;;;;16.00;11.57;;;;;;;12.15;62.62;102019.16;2106120;28;20172;-66
2022/05/06 03:28:02;;;;;;;15.00;11.03;;;;;;;12.27;62.79;102052.03;2106213;28;20718;-66
2022/05/06 03:29:03;;;;;;;11.50;9.57;;;;;;;12.32;62.87;102056.34;2105799;28;20242;-66
2022/05/06 03:30:05;;;;;;;14.07;9.37;;;;;;;12.33;62.68;102066.25;2105527;28;20414;-66
2022/05/06 03:31:05;;;;;;;10.50;8.90;;;;;;;12.31;62.67;102058.34;2105508;28;20170;-66
2022/05/06 03:32:06;;;;;;;12.03;8.70;;;;;;;12.22;62.47;102057.22;2105951;28;20978;-66
2022/05/06 03:34:28;;;;;;;12.57;10.47;;;;;;;11.24;62.40;101916.25;2106329;28;20838;-66
2022/05/06 03:35:28;;;;;;;16.40;11.30;;;;;;;12.23;62.42;102075.47;2105688;28;20417;-66
2022/05/06 03:36:29;;;;;;;15.63;11.47;;;;;;;11.56;62.31;101966.78;2105894;28;20198;-67
2022/05/06 03:37:30;;;;;;;18.43;11.87;;;;;;;11.93;62.54;102039.19;2106505;28;20654;-66
2022/05/06 03:38:30;;;;;;;14.53;11.23;;;;;;;12.19;62.60;102081.06;2106112;28;20922;-66
2022/05/06 03:39:31;;;;;;;13.33;10.00;;;;;;;12.16;63.27;102078.31;2106561;28;20213;-66
2022/05/06 03:40:33;;;;;;;15.47;10.47;;;;;;;12.09;63.51;102076.38;2105394;28;20683;-67
2022/05/06 03:41:34;;;;;;;13.43;11.27;;;;;;;12.09;63.58;102079.16;2106159;28;20872;-66
2022/05/06 03:42:35;;;;;;;14.40;10.57;;;;;;;11.77;63.63;102034.13;2106018;28;20417;-67
2022/05/06 03:43:35;;;;;;;15.47;10.70;;;;;;;11.30;63.50;101956.25;2106313;28;20182;-66
2022/05/06 03:44:36;;;;;;;11.43;9.60;;;;;;;12.09;63.87;102064.47;2105979;28;20199;-66
2022/05/06 03:45:38;;;;;;;13.43;10.30;;;;;;;12.02;64.00;102068.09;2105994;28;20180;-67
2022/05/06 03:46:39;;;;;;;13.97;11.17;;;;;;;12.06;63.95;102079.97;2105873;28;20258;-66
2022/05/06 03:47:39;;;;;;;12.50;10.20;;;;;;;12.06;64.03;102077.22;2106358;28;20405;-66
2022/05/06 03:48:40;;;;;;;11.90;9.77;;;;;;;10.86;64.13;101901.38;2106130;28;20175;-66
2022/05/06 03:49:41;;;;;;;14.70;10.30;;;;;;;11.23;64.15;101957.06;2106061;28;20197;-67
2022/05/06 03:52:00;;;;;;;13.10;9.23;;;;;;;11.11;64.34;101948.41;2106089;28;20623;-67
2022/05/06 03:53:01;;;;;;;11.17;8.57;;;;;;;12.07;64.75;102091.88;2106236;28;20435;-67
2022/05/06 03:54:02;;;;;;;11.77;8.07;;;;;;;12.09;65.04;102095.06;2106003;28;20172;-67
2022/05/06 03:55:03;;;;;;;8.03;7.17;;;;;;;12.07;64.93;102080.75;2105630;28;20672;-66
2022/05/06 03:56:05;;;;;;;12.50;8.53;;;;;;;12.15;65.04;102099.75;2105928;28;20441;-66
2022/05/06 03:57:05;;;;;;;9.87;8.10;;;;;;;12.18;65.21;102098.94;2106056;28;20943;-66
2022/05/06 03:58:06;;;;;;;8.57;7.67;;;;;;;11.40;64.96;101970.09;2105806;28;20900;-66
2022/05/06 03:59:07;;;;;;;8.50;7.37;;;;;;;12.25;65.36;102098.88;2106522;28;20166;-66
2022/05/06 04:00:09;;;;;;;11.97;8.50;;;;;;;11.89;65.24;102036.41;2105926;28;20172;-67
2022/05/06 04:01:10;;;;;;;14.70;7.10;;;;;;;12.29;65.33;102094.09;2105201;28;20171;-67
2022/05/06 04:02:11;;;;;;;10.53;7.77;;;;;;;12.34;65.34;102104.78;2105783;28;20414;-67
2022/05/06 04:03:11;;;;;;;14.80;7.70;;;;;;;12.23;65.37;102083.81;2106242;28;20175;-67
2022/05/06 04:04:12;;;;;;;10.73;7.77;;;;;;;12.41;65.30;102112.28;2105772;28;20634;-67
2022/05/06 04:05:12;;;;;;;12.80;7.70;;;;;;;12.26;65.21;102078.25;2105567;28;20555;-66
2022/05/06 04:06:14;;;;;;;14.77;7.83;;;;;;;12.54;65.24;102110.56;2105940;28;20183;-67
2022/05/06 04:07:15;;;;;;;10.13;7.10;;;;;;;12.26;65.24;102064.34;2105925;28;20171;-66
2022/05/06 04:08:15;;;;;;;9.47;7.60;;;;;;;12.67;64.96;102120.81;2105926;28;20420;-67
2022/05/06 04:09:17;;;;;;;11.53;8.00;;;;;;;12.72;64.85;102114.81;2106221;28;20195;-66
2022/05/06 04:10:17;;;;;;;11.60;8.57;;;;;;;12.75;64.47;102113.97;2105203;28;20220;-67
2022/05/06 04:11:20;;;;;;;12.73;9.60;;;;;;;12.78;64.24;102113.16;2105960;28;20425;-67
2022/05/06 04:12:21;;;;;;;12.63;7.87;;;;;;;12.81;64.13;102117.09;2105654;28;20179;-67
2022/05/06 04:13:21;;;;;;;8.60;7.67;;;;;;;12.82;64.18;102110.34;2106245;28;20449;-67
2022/05/06 04:14:22;;;;;;;8.47;7.00;;;;;;;12.48;63.96;102056.59;2105833;28;20405;-67
2022/05/06 04:15:23;;;;;;;9.17;7.50;;;;;;;12.75;64.05;102088.16;2105414;28;20178;-66
2022/05/06 04:16:24;;;;;;;11.63;7.97;;;;;;;12.94;64.11;102113.41;2105861;28;20505;-66
2022/05/06 04:17:25;;;;;;;12.83;7.47;;;;;;;12.19;63.93;101994.91;2106012;28;20174;-66
2022/05/06 04:18:25;;;;;;;13.67;6.97;;;;;;;12.86;63.73;102092.41;2105748;28;20510;-67
2022/05/06 04:19:26;;;;;;;9.57;7.17;;;;;;;12.68;63.76;102063.16;2106036;28;20182;-66
2022/05/06 04:24:23;;;;;;;11.10;7.37;;;;;;;13.19;63.35;102127.88;2105679;28;20472;-67
2022/05/06 04:25:24;;;;;;;13.27;7.10;;;;;;;13.16;63.16;102122.34;2105286;28;20920;-66
2022/05/06 04:26:24;;;;;;;10.77;7.27;;;;;;;13.18;63.08;102120.75;2105738;28;20725;-66
2022/05/06 04:27:25;;;;;;;9.63;7.40;;;;;;;12.03;62.89;101944.63;2105859;28;20684;-66
2022/05/06 04:28:30;;;;;;;9.37;6.90;;;;;;;13.29;62.77;102134.53;2105782;28;20236;-67
2022/05/06 04:29:31;;;;;;;13.03;7.50;;;;;;;13.24;62.67;102121.84;2105970;28;20170;-67
2022/05/06 04:30:31;;;;;;;13.57;8.37;;;;;;;13.31;62.60;102141.25;2104921;28;20413;-66
2022/05/06 04:31:32;;;;;;;12.93;7.90;;;;;;;13.35;62.67;102138.44;2105951;28;20648;-66
2022/05/06 04:32:32;;;;;;;14.20;8.07;;;;;;;13.00;62.33;102083.13;2105409;28;20576;-66
2022/05/06 04:33:34;;;;;;;10.07;7.70;;;;;;;13.40;62.31;102146.31;2106062;28;20261;-67
2022/05/06 04:34:35;;;;;;;12.33;7.87;;;;;;;13.40;62.07;102149.91;2105574;28;20248;-66
2022/05/06 04:35:35;;;;;;;9.83;7.70;;;;;;;13.02;62.03;102092.66;2105608;28;20451;-66
2022/05/06 04:36:39;;;;;;;11.50;7.63;;;;;;;13.40;62.13;102147.13;2105692;28;20186;-67
2022/05/06 04:37:40;;;;;;;10.83;7.27;;;;;;;13.35;62.01;102133.66;2105689;28;20174;-66
2022/05/06 04:38:40;;;;;;;11.87;8.03;;;;;;;13.45;62.11;102141.09;2105748;28;20424;-67
2022/05/06 04:39:41;;;;;;;16.53;9.93;;;;;;;13.03;62.06;102077.56;2105775;28;20671;-66
2022/05/06 04:40:42;;;;;;;16.90;10.37;;;;;;;13.53;61.71;102150.16;2105022;28;20724;-66
2022/05/06 04:41:45;;;;;;;13.80;10.73;;;;;;;13.54;61.47;102144.19;2105782;28;20181;-67
2022/05/06 04:42:45;;;;;;;13.83;10.50;;;;;;;13.58;61.48;102152.50;2105611;28;20207;-67
2022/05/06 04:43:46;;;;;;;14.63;12.60;;;;;;;13.42;61.28;102125.22;2105716;28;20417;-66
2022/05/06 04:44:46;;;;;;;13.83;11.73;;;;;;;13.60;61.08;102152.84;2105338;28;20196;-66
2022/05/06 04:45:49;;;;;;;15.60;12.10;;;;;;;12.83;60.94;102020.09;2105560;28;20253;-66
2022/05/06 04:46:49;;;;;;;14.63;12.33;;;;;;;13.65;61.15;102146.81;2105634;28;20179;-66
2022/05/06 04:47:50;;;;;;;18.30;13.67;;;;;;;13.51;60.90;102131.09;2105548;28;20413;-66
2022/05/06 04:48:51;;;;;;;18.57;13.53;;;;;;;13.69;60.97;102156.72;2105724;28;20171;-67
2022/05/06 04:49:51;;;;;;;19.07;13.80;;;;;;;13.69;60.93;102161.50;2105591;28;20988;-67
2022/05/06 04:50:52;;;;;;;22.47;16.40;;;;;;;13.70;60.96;102155.53;2104844;28;20544;-66
2022/05/06 04:51:52;;;;;;;20.00;14.57;;;;;;;12.83;61.01;102015.34;2105676;28;20260;-66
2022/05/06 04:52:53;;;;;;;20.97;14.70;;;;;;;13.74;60.96;102167.41;2105507;28;20232;-66
2022/05/06 04:53:55;;;;;;;17.50;13.83;;;;;;;13.76;60.79;102159.44;2104981;28;20263;-66
2022/05/06 04:54:55;;;;;;;18.87;14.20;;;;;;;13.71;60.90;102154.31;2104439;28;20276;-67